createdAt,value
2022-10-04T00:04:03.771Z,102178.66
2022-10-04T00:09:12.163Z,102172.78
2022-10-04T00:14:28.655Z,102177.59
2022-10-04T00:19:45.682Z,102181.97
2022-10-04T00:25:33.575Z,102163.78
2022-10-04T00:30:38.353Z,102158.09
2022-10-04T00:35:40.034Z,102152.94
2022-10-04T00:41:03.756Z,102140.47
2022-10-04T00:46:11.595Z,102138.91
2022-10-04T00:51:25.293Z,102135.78
2022-10-04T00:56:37.225Z,102133.84
2022-10-04T01:01:39.153Z,102134.38
2022-10-04T01:06:42.331Z,102136.78
2022-10-04T01:11:52.912Z,102125.53
2022-10-04T01:16:54.698Z,102118.59
2022-10-04T01:22:05.338Z,102117.22
2022-10-04T01:27:35.790Z,102109.06
2022-10-04T01:32:38.085Z,102108.75
2022-10-04T01:37:40.601Z,102100.44
2022-10-04T01:42:52.160Z,102087.09
2022-10-04T01:47:59.855Z,102061.19
2022-10-04T01:53:07.477Z,102042.78
2022-10-04T01:58:17.338Z,102032.22
2022-10-04T02:03:26.450Z,102023.53
2022-10-04T02:08:33.018Z,102011.63
2022-10-04T02:13:38.671Z,102011.56
2022-10-04T02:18:43.634Z,102014.84
2022-10-04T02:23:47.151Z,101998.59
2022-10-04T02:28:49.179Z,101997.69
2022-10-04T02:33:55.397Z,101991.13
2022-10-04T02:39:44.022Z,101988.19
2022-10-04T02:44:57.647Z,101974.66
2022-10-04T02:50:06.765Z,101963.28
2022-10-04T02:55:14.504Z,101954.25
2022-10-04T03:00:48.696Z,101959.53
2022-10-04T03:06:02.598Z,101958.69
2022-10-04T03:11:05.676Z,101960.63
2022-10-04T03:16:08.283Z,101946.94
2022-10-04T03:21:12.720Z,101947.50
2022-10-04T03:26:20.837Z,101933.09
2022-10-04T03:31:23.513Z,101923.78
2022-10-04T03:36:27.419Z,101928.19
2022-10-04T03:41:29.136Z,101928.59
2022-10-04T03:46:30.871Z,101923.78
2022-10-04T03:51:32.819Z,101917.72
2022-10-04T03:56:36.930Z,101920.16
2022-10-04T04:01:57.347Z,101917.22
2022-10-04T04:07:33.813Z,101914.44
2022-10-04T04:12:40.605Z,101925.47
2022-10-04T04:17:52.693Z,101919.03
2022-10-04T04:23:00.237Z,101909.22
2022-10-04T04:28:13.993Z,101913.09
2022-10-04T04:33:26.930Z,101905.25
2022-10-04T04:38:28.579Z,101904.72
2022-10-04T04:43:30.972Z,101915.50
2022-10-04T04:48:32.796Z,101911.69
2022-10-04T04:53:34.788Z,101904.56
2022-10-04T04:58:42.021Z,101906.75
2022-10-04T05:03:43.714Z,101896.38
2022-10-04T05:08:50.799Z,101902.94
2022-10-04T05:13:57.417Z,101887.25
2022-10-04T05:19:01.926Z,101874.97
2022-10-04T05:24:13.972Z,101882.03
2022-10-04T05:29:19.626Z,101890.81
2022-10-04T05:34:25.609Z,101882.16
2022-10-04T05:39:36.704Z,101862.63
2022-10-04T05:44:52.950Z,101857.53
2022-10-04T05:49:57.895Z,101863.81
2022-10-04T05:55:24.030Z,101863.13
2022-10-04T06:00:39.776Z,101860.59
2022-10-04T06:05:49.538Z,101859.03
2022-10-04T06:10:52.383Z,101848.50
2022-10-04T06:16:24.905Z,101863.81
2022-10-04T06:21:31.183Z,101856.84
2022-10-04T06:26:47.491Z,101853.03
2022-10-04T06:31:58.711Z,101861.47
2022-10-04T06:37:32.605Z,101861.63
2022-10-04T06:42:53.451Z,101852.97
2022-10-04T06:48:21.190Z,101854.28
2022-10-04T06:53:31.768Z,101856.81
2022-10-04T06:58:50.647Z,101848.94
2022-10-04T07:04:01.351Z,101855.66
2022-10-04T07:09:07.895Z,101862.97
2022-10-04T07:14:18.734Z,101863.97
2022-10-04T07:19:20.296Z,101861.31
2022-10-04T07:25:03.163Z,101856.03
2022-10-04T07:30:07.797Z,101861.00
2022-10-04T07:35:09.465Z,101865.72
2022-10-04T07:40:46.595Z,101863.06
2022-10-04T07:45:49.619Z,101861.69
2022-10-04T07:51:15.894Z,101864.81
2022-10-04T07:56:28.339Z,101878.75
2022-10-04T08:01:40.352Z,101871.13
2022-10-04T08:07:03.533Z,101870.97
2022-10-04T08:12:28.931Z,101864.47
2022-10-04T08:17:39.476Z,101863.03
2022-10-04T08:23:16.948Z,101850.06
2022-10-04T08:28:46.370Z,101851.28
2022-10-04T08:34:45.358Z,101833.38
2022-10-04T08:39:58.724Z,101847.66
2022-10-04T08:45:24.900Z,101838.75
2022-10-04T08:50:44.476Z,101844.78
2022-10-04T08:56:04.351Z,101852.44
2022-10-04T09:01:19.400Z,101858.41
2022-10-04T09:06:29.804Z,101854.44
2022-10-04T09:11:41.605Z,101852.75
2022-10-04T09:16:47.574Z,101845.50
2022-10-04T09:22:13.354Z,101838.91
2022-10-04T09:27:54.581Z,101811.59
2022-10-04T09:33:25.969Z,101812.63
2022-10-04T09:39:25.093Z,101822.00
2022-10-04T09:45:02.794Z,101824.66
2022-10-04T09:50:13.918Z,101833.84
2022-10-04T09:55:34.184Z,101827.81
2022-10-04T10:00:39.334Z,101833.19
2022-10-04T10:06:15.090Z,101829.44
2022-10-04T10:12:11.631Z,101830.47
2022-10-04T10:17:24.718Z,101834.41
2022-10-04T10:23:03.984Z,101831.25
2022-10-04T10:28:25.328Z,101813.34
2022-10-04T10:33:46.234Z,101805.69
2022-10-04T10:39:15.950Z,101811.66
2022-10-04T10:44:44.230Z,101811.84
2022-10-04T10:49:53.029Z,101795.00
2022-10-04T10:55:20.306Z,101790.69
2022-10-04T11:00:29.995Z,101792.69
2022-10-04T11:05:31.923Z,101806.41
2022-10-04T11:10:52.177Z,101808.22
2022-10-04T11:16:07.220Z,101780.25
2022-10-04T11:21:46.392Z,101790.41
2022-10-04T11:27:06.876Z,101795.59
2022-10-04T11:32:20.621Z,101797.44
2022-10-04T11:37:33.719Z,101781.81
2022-10-04T11:43:13.123Z,101777.72
2022-10-04T11:48:41.487Z,101779.06
2022-10-04T11:53:42.999Z,101772.88
2022-10-04T11:59:18.791Z,101765.00
2022-10-04T12:04:20.898Z,101756.72
2022-10-04T12:09:36.888Z,101744.03
2022-10-04T12:14:53.554Z,101740.69
2022-10-04T12:20:28.836Z,101731.16
2022-10-04T12:25:46.284Z,101721.66
2022-10-04T12:31:23.913Z,101712.31
2022-10-04T12:36:49.531Z,101710.34
2022-10-04T12:42:12.970Z,101703.28
2022-10-04T12:47:48.994Z,101699.38
2022-10-04T12:53:11.875Z,101697.00
2022-10-04T12:58:25.946Z,101694.28
2022-10-04T13:03:53.918Z,101699.41
2022-10-04T13:09:05.891Z,101672.88
2022-10-04T13:14:22.855Z,101662.72
2022-10-04T13:19:50.327Z,101654.38
2022-10-04T13:25:11.368Z,101634.63
2022-10-04T13:30:23.632Z,101633.81
2022-10-04T13:35:54.646Z,101636.16
2022-10-04T13:41:10.748Z,101619.66
2022-10-04T13:46:44.773Z,101624.38
2022-10-04T13:52:40.013Z,101620.94
2022-10-04T13:58:01.446Z,101631.88
2022-10-04T14:03:15.131Z,101635.91
2022-10-04T14:08:25.903Z,101647.91
2022-10-04T14:13:57.443Z,101632.00
2022-10-04T14:19:08.407Z,101621.28
2022-10-04T14:24:38.975Z,101628.59
2022-10-04T14:30:12.537Z,101628.53
2022-10-04T14:35:34.369Z,101649.09
2022-10-04T14:41:06.257Z,101633.63
2022-10-04T14:46:45.277Z,101637.69
2022-10-04T14:52:04.321Z,101627.75
2022-10-04T14:57:12.315Z,101629.41
2022-10-04T15:02:17.418Z,101634.97
2022-10-04T15:07:30.170Z,101634.97
2022-10-04T15:12:51.982Z,101625.59
2022-10-04T15:18:17.173Z,101630.28
2022-10-04T15:23:37.985Z,101630.25
2022-10-04T15:28:48.769Z,101637.94
2022-10-04T15:34:10.100Z,101620.59
2022-10-04T15:39:50.942Z,101608.19
2022-10-04T15:45:00.225Z,101614.56
2022-10-04T15:50:21.393Z,101621.22
2022-10-04T15:56:04.021Z,101609.25
2022-10-04T16:01:55.368Z,101621.03
2022-10-04T16:07:10.785Z,101621.59
2022-10-04T16:12:29.244Z,101619.81
2022-10-04T16:17:53.216Z,101617.69
2022-10-04T16:23:27.994Z,101626.41
2022-10-04T16:28:39.455Z,101607.59
2022-10-04T16:33:55.832Z,101607.09
2022-10-04T16:39:19.554Z,101620.34
2022-10-04T16:44:40.699Z,101632.53
2022-10-04T16:49:55.009Z,101629.56
2022-10-04T16:55:25.111Z,101622.91
2022-10-04T17:00:37.807Z,101629.09
2022-10-04T17:06:10.320Z,101606.00
2022-10-04T17:11:33.925Z,101625.59
2022-10-04T17:16:38.850Z,101621.16
2022-10-04T17:22:04.225Z,101624.59
2022-10-04T17:27:39.343Z,101627.53
2022-10-04T17:32:48.099Z,101629.19
2022-10-04T17:38:08.871Z,101627.28
2022-10-04T17:43:34.351Z,101628.13
2022-10-04T17:49:23.029Z,101621.06
2022-10-04T17:54:50.551Z,101618.03
2022-10-04T18:00:14.238Z,101610.53
2022-10-04T18:05:22.319Z,101626.34
2022-10-04T18:10:38.026Z,101634.03
2022-10-04T18:15:51.370Z,101627.81
2022-10-04T18:21:06.243Z,101614.59
2022-10-04T18:26:19.162Z,101613.25
2022-10-04T18:31:24.247Z,101597.88
2022-10-04T18:36:37.169Z,101595.56
2022-10-04T18:41:56.804Z,101571.06
2022-10-04T18:47:02.369Z,101556.13
2022-10-04T18:52:10.150Z,101544.31
2022-10-04T18:57:33.290Z,101554.13
2022-10-04T19:02:43.484Z,101540.69
2022-10-04T19:07:51.019Z,101541.13
2022-10-04T19:13:17.481Z,101530.19
2022-10-04T19:18:36.823Z,101538.91
2022-10-04T19:23:58.334Z,101557.72
2022-10-04T19:29:24.662Z,101555.53
2022-10-04T19:34:48.324Z,101537.38
2022-10-04T19:40:22.957Z,101539.88
2022-10-04T19:45:48.519Z,101557.84
2022-10-04T19:50:56.859Z,101556.63
2022-10-04T19:55:59.761Z,101554.22
2022-10-04T20:01:01.477Z,101558.28
2022-10-04T20:06:04.127Z,101565.94
2022-10-04T20:11:48.445Z,101563.34
2022-10-04T20:16:53.259Z,101573.59
2022-10-04T20:21:57.018Z,101569.31
2022-10-04T20:27:06.694Z,101565.00
2022-10-04T20:32:10.824Z,101578.22
2022-10-04T20:37:14.468Z,101573.75
2022-10-04T20:42:26.319Z,101579.69
2022-10-04T20:47:51.207Z,101570.09
2022-10-04T20:52:57.083Z,101572.63
2022-10-04T20:58:21.920Z,101575.13
2022-10-04T21:03:24.584Z,101563.16
2022-10-04T21:08:27.445Z,101552.47
2022-10-04T21:13:46.875Z,101567.00
2022-10-04T21:18:48.666Z,101558.88
2022-10-04T21:23:50.370Z,101558.22
2022-10-04T21:29:01.621Z,101552.84
2022-10-04T21:34:03.254Z,101543.94
2022-10-04T21:39:04.866Z,101539.16
2022-10-04T21:44:06.916Z,101540.44
2022-10-04T21:49:08.598Z,101529.75
2022-10-04T21:54:10.306Z,101528.88
2022-10-04T21:59:11.957Z,101531.44
2022-10-04T22:04:13.755Z,101532.72
2022-10-04T22:09:15.524Z,101521.63
2022-10-04T22:14:17.176Z,101511.78
2022-10-04T22:19:20.934Z,101513.84
2022-10-04T22:24:22.798Z,101509.84
2022-10-04T22:29:26.145Z,101519.41
2022-10-04T22:34:27.799Z,101521.34
2022-10-04T22:39:32.588Z,101513.81
2022-10-04T22:44:38.898Z,101523.44
2022-10-04T22:49:46.684Z,101522.13
2022-10-04T22:54:57.875Z,101518.09
2022-10-04T22:59:59.476Z,101518.31
2022-10-04T23:05:18.031Z,101510.38
2022-10-04T23:10:19.922Z,101508.91
2022-10-04T23:15:21.637Z,101504.81
2022-10-04T23:20:23.682Z,101507.78
2022-10-04T23:25:28.748Z,101501.78
2022-10-04T23:30:30.409Z,101480.84
2022-10-04T23:35:34.081Z,101487.47
2022-10-04T23:40:35.759Z,101485.53
2022-10-04T23:45:42.081Z,101489.38
2022-10-04T23:50:50.772Z,101482.09
2022-10-04T23:55:57.402Z,101483.59
